createdAt,value
2019-05-23T07:41:44.010Z,12.97
2019-05-23T08:01:44.813Z,12.11
2019-05-23T08:12:02.895Z,13.34
2019-05-23T08:31:58.663Z,14.15
2019-05-23T08:42:00.982Z,14.36
2019-05-23T08:51:52.856Z,14.64
2019-05-23T09:02:18.496Z,13.71
2019-05-23T09:12:00.882Z,14.77
2019-05-23T09:13:05.441Z,14.87
2019-05-23T09:14:09.033Z,14.90
2019-05-23T09:15:13.367Z,14.90
2019-05-23T09:16:16.952Z,14.88
2019-05-23T09:17:21.274Z,14.78
2019-05-23T09:18:25.020Z,14.77
2019-05-23T09:19:29.122Z,14.69
2019-05-23T09:20:32.815Z,14.61
2019-05-23T09:21:37.455Z,14.63
2019-05-23T09:22:41.271Z,14.66
2019-05-23T09:23:45.478Z,14.72
2019-05-23T09:24:48.915Z,14.74
2019-05-23T09:25:53.514Z,14.74
2019-05-23T09:26:57.017Z,14.74
2019-05-23T09:28:01.263Z,14.75
2019-05-23T09:29:06.230Z,14.79
2019-05-23T09:30:12.697Z,14.84
2019-05-23T09:31:16.375Z,14.89
2019-05-23T09:32:20.709Z,14.93
2019-05-23T09:33:24.364Z,14.99
2019-05-23T09:34:28.554Z,15.06
2019-05-23T09:35:32.272Z,15.14
2019-05-23T09:36:36.743Z,15.19
2019-05-23T09:37:40.766Z,15.14
2019-05-23T09:38:44.897Z,15.05
2019-05-23T09:39:49.865Z,15.04
2019-05-23T09:40:54.102Z,14.89
2019-05-23T09:41:57.555Z,14.77
2019-05-23T09:43:01.644Z,14.61
2019-05-23T09:44:05.352Z,14.57
2019-05-23T09:45:09.517Z,14.68
2019-05-23T09:46:13.031Z,14.82
2019-05-23T09:47:17.335Z,14.94
2019-05-23T09:48:21.372Z,14.96
2019-05-23T09:49:25.674Z,14.94
2019-05-23T09:50:29.468Z,14.95
2019-05-23T09:51:33.811Z,15.00
2019-05-23T09:52:37.252Z,15.07
2019-05-23T09:53:47.008Z,15.14
2019-05-23T09:54:46.482Z,15.17
2019-05-23T09:55:50.563Z,15.18
2019-05-23T09:56:54.426Z,15.21
2019-05-23T09:57:58.497Z,15.18
2019-05-23T09:59:02.030Z,15.14
2019-05-23T10:00:11.041Z,15.12
2019-05-23T10:01:16.675Z,15.16
2019-05-23T10:02:20.765Z,15.24
2019-05-23T10:03:24.723Z,15.35
2019-05-23T10:04:28.970Z,15.47
2019-05-23T10:05:42.954Z,15.57
2019-05-23T10:06:38.234Z,15.67
2019-05-23T10:07:41.744Z,15.77
2019-05-23T10:08:45.864Z,15.83
2019-05-23T10:09:49.306Z,15.84
2019-05-23T10:10:54.013Z,15.83
2019-05-23T10:11:57.606Z,15.80
2019-05-23T10:13:01.713Z,15.83
2019-05-23T10:14:07.449Z,15.89
2019-05-23T10:15:12.995Z,15.92
2019-05-23T10:16:16.573Z,15.91
2019-05-23T10:17:20.740Z,15.96
2019-05-23T10:18:24.250Z,16.01
2019-05-23T10:19:28.378Z,16.07
2019-05-23T10:20:34.860Z,16.12
2019-05-23T10:21:38.886Z,16.23
2019-05-23T10:22:42.399Z,16.27
2019-05-23T10:23:46.428Z,16.04
2019-05-23T10:24:49.891Z,15.90
2019-05-23T10:25:54.062Z,15.91
2019-05-23T10:26:57.651Z,15.95
2019-05-23T10:28:01.804Z,16.01
2019-05-23T10:29:05.600Z,16.05
2019-05-23T10:30:11.140Z,16.10
2019-05-23T10:31:15.080Z,16.20
2019-05-23T10:32:19.243Z,16.22
2019-05-23T10:33:22.876Z,16.25
2019-05-23T10:34:27.088Z,16.33
2019-05-23T10:35:31.459Z,16.34
2019-05-23T10:36:35.491Z,16.32
2019-05-23T10:37:39.262Z,16.36
2019-05-23T10:38:43.529Z,16.51
2019-05-23T10:39:50.034Z,16.54
2019-05-23T10:40:54.133Z,16.57
2019-05-23T10:41:57.748Z,16.61
2019-05-23T10:43:01.867Z,16.67
2019-05-23T10:44:05.944Z,16.64
2019-05-23T10:45:10.246Z,16.46
2019-05-23T10:46:13.815Z,16.52
2019-05-23T10:47:18.079Z,16.61
2019-05-23T10:48:22.465Z,16.70
2019-05-23T10:49:26.582Z,16.73
2019-05-23T10:50:43.755Z,16.75
2019-05-23T10:51:35.822Z,16.69
2019-05-23T10:52:39.400Z,16.58
2019-05-23T10:53:43.489Z,16.48
2019-05-23T10:54:46.929Z,16.46
2019-05-23T10:55:51.013Z,16.40
2019-05-23T10:56:54.512Z,16.43
2019-05-23T10:57:58.614Z,16.56
2019-05-23T10:59:02.158Z,16.65
2019-05-23T11:00:10.458Z,16.79
2019-05-23T11:01:14.361Z,16.98
2019-05-23T11:02:18.627Z,17.05
2019-05-23T11:03:23.252Z,17.01
2019-05-23T11:04:27.198Z,17.14
2019-05-23T11:05:30.878Z,17.34
2019-05-23T11:06:35.137Z,17.32
2019-05-23T11:07:40.360Z,17.26
2019-05-23T11:08:45.107Z,17.23
2019-05-23T11:09:48.949Z,17.27
2019-05-23T11:10:53.113Z,17.25
2019-05-23T11:11:56.916Z,17.39
2019-05-23T11:13:00.935Z,17.53
2019-05-23T11:14:08.415Z,17.59
2019-05-23T11:15:12.464Z,17.56
2019-05-23T11:16:16.183Z,17.52
2019-05-23T11:17:20.903Z,17.57
2019-05-23T11:18:25.352Z,17.74
2019-05-23T11:19:29.960Z,17.89
2019-05-23T11:20:36.104Z,18.02
2019-05-23T11:21:39.807Z,18.12
2019-05-23T11:22:43.390Z,18.21
2019-05-23T11:23:48.552Z,18.33
2019-05-23T11:24:52.317Z,18.37
2019-05-23T11:26:00.671Z,18.47
2019-05-23T11:27:01.830Z,18.53
2019-05-23T11:28:05.952Z,18.59
2019-05-23T11:29:09.521Z,18.53
2019-05-23T11:30:23.884Z,18.55
2019-05-23T11:31:27.630Z,18.58
2019-05-23T11:32:32.145Z,18.61
2019-05-23T11:33:35.891Z,18.77
2019-05-23T11:34:39.995Z,18.80
2019-05-23T11:35:44.767Z,18.93
2019-05-23T11:36:48.925Z,18.99
2019-05-23T11:37:52.681Z,19.05
2019-05-23T11:38:56.777Z,19.13
2019-05-23T11:40:00.464Z,19.13
2019-05-23T11:41:04.657Z,19.25
2019-05-23T11:42:08.174Z,19.36
2019-05-23T11:43:12.284Z,19.47
2019-05-23T11:44:16.135Z,19.57
2019-05-23T11:45:20.311Z,19.62
2019-05-23T11:46:28.615Z,19.41
2019-05-23T11:47:32.821Z,19.36
2019-05-23T11:48:36.391Z,19.28
2019-05-23T11:49:41.476Z,19.13
2019-05-23T11:50:45.816Z,19.10
2019-05-23T11:51:50.008Z,19.02
2019-05-23T11:52:55.999Z,19.13
2019-05-23T11:54:07.506Z,19.19
2019-05-23T11:55:07.615Z,18.95
2019-05-23T11:56:11.892Z,18.76
2019-05-23T11:57:15.409Z,18.71
2019-05-23T11:58:19.645Z,18.80
2019-05-23T11:59:23.425Z,18.97
2019-05-23T12:00:39.279Z,19.15
2019-05-23T12:01:44.560Z,19.31
2019-05-23T12:02:49.982Z,19.37
2019-05-23T12:03:57.628Z,19.38
2019-05-23T12:05:02.881Z,19.48
2019-05-23T12:06:07.036Z,19.53
2019-05-23T12:07:12.188Z,19.60
2019-05-23T12:08:16.550Z,19.63
2019-05-23T12:09:21.350Z,19.75
2019-05-23T12:10:25.557Z,19.78
2019-05-23T12:11:29.328Z,19.94
2019-05-23T12:12:33.361Z,20.15
2019-05-23T12:13:36.887Z,20.14
2019-05-23T12:14:41.774Z,19.91
2019-05-23T12:15:48.791Z,20.00
2019-05-23T12:16:53.405Z,20.11
2019-05-23T12:17:57.055Z,20.38
2019-05-23T12:19:01.195Z,20.45
2019-05-23T12:20:07.055Z,20.71
2019-05-23T12:21:11.316Z,20.87
2019-05-23T12:22:15.808Z,20.98
2019-05-23T12:23:20.124Z,21.12
2019-05-23T12:24:24.044Z,21.37
2019-05-23T12:25:28.787Z,21.55
2019-05-23T12:26:32.448Z,21.73
2019-05-23T12:27:36.895Z,21.96
2019-05-23T12:28:40.654Z,22.13
2019-05-23T12:29:45.417Z,22.17
2019-05-23T12:30:49.300Z,22.14
2019-05-23T12:31:53.926Z,22.25
2019-05-23T12:32:57.578Z,22.43
2019-05-23T12:34:02.025Z,22.52
2019-05-23T12:35:10.972Z,22.53
2019-05-23T12:36:14.992Z,22.58
2019-05-23T12:37:20.913Z,22.53
2019-05-23T12:38:25.749Z,22.29
2019-05-23T12:39:29.862Z,22.03
2019-05-23T12:40:34.499Z,21.94
2019-05-23T12:41:38.732Z,21.99
2019-05-23T12:42:42.898Z,21.96
2019-05-23T12:43:47.000Z,22.07
2019-05-23T12:44:51.355Z,21.87
2019-05-23T12:45:55.168Z,21.51
2019-05-23T12:47:00.374Z,21.37
2019-05-23T12:48:08.459Z,21.21
2019-05-23T12:49:13.601Z,21.16
2019-05-23T12:50:21.801Z,21.37
2019-05-23T12:51:27.039Z,21.55
2019-05-23T12:52:32.386Z,21.58
2019-05-23T12:53:36.678Z,21.89
2019-05-23T12:54:40.792Z,22.12
2019-05-23T12:55:44.517Z,22.32
2019-05-23T12:56:49.415Z,22.29
2019-05-23T12:57:52.935Z,22.32
2019-05-23T12:58:57.891Z,22.25
2019-05-23T13:00:01.467Z,22.15
2019-05-23T13:01:07.649Z,21.80
2019-05-23T13:02:12.234Z,21.65
2019-05-23T13:03:16.718Z,21.70
2019-05-23T13:04:20.389Z,21.67
2019-05-23T13:05:24.589Z,21.52
2019-05-23T13:06:28.559Z,21.79
2019-05-23T13:07:36.274Z,21.96
2019-05-23T13:08:38.124Z,22.02
2019-05-23T13:09:42.151Z,21.97
2019-05-23T13:10:45.764Z,22.21
2019-05-23T13:11:50.266Z,22.67
2019-05-23T13:12:53.933Z,22.93
2019-05-23T13:13:58.091Z,23.18
2019-05-23T13:15:01.708Z,23.33
2019-05-23T13:16:05.887Z,23.74
2019-05-23T13:17:09.400Z,23.82
2019-05-23T13:18:13.557Z,24.10
2019-05-23T13:19:17.754Z,24.30
2019-05-23T13:20:22.743Z,24.31
2019-05-23T13:21:26.264Z,24.68
2019-05-23T13:22:30.517Z,25.08
2019-05-23T13:23:34.785Z,25.54
2019-05-23T13:24:51.906Z,25.32
2019-05-23T13:25:44.372Z,25.35
2019-05-23T13:26:48.573Z,25.17
2019-05-23T13:27:52.014Z,24.52
2019-05-23T13:28:56.063Z,24.61
2019-05-23T13:29:59.636Z,24.97
2019-05-23T13:31:03.896Z,25.39
2019-05-23T13:32:08.283Z,25.76
2019-05-23T13:33:12.610Z,25.93
2019-05-23T13:34:16.177Z,25.86
2019-05-23T13:35:20.603Z,26.08
2019-05-23T13:36:24.102Z,26.41
2019-05-23T13:37:27.891Z,26.32
2019-05-23T13:38:31.457Z,26.45
2019-05-23T13:39:35.558Z,26.41
2019-05-23T13:40:39.174Z,26.56
2019-05-23T13:41:43.259Z,26.52
2019-05-23T13:42:46.951Z,26.53
2019-05-23T13:43:51.443Z,26.77
2019-05-23T13:44:54.996Z,26.83
2019-05-23T13:45:59.464Z,26.77
2019-05-23T13:47:03.218Z,26.85
2019-05-23T13:48:07.574Z,26.99
2019-05-23T13:49:11.335Z,27.12
2019-05-23T13:50:16.470Z,27.00
2019-05-23T13:51:20.035Z,26.97
2019-05-23T13:52:24.236Z,26.82
2019-05-23T13:53:27.850Z,26.47
2019-05-23T13:54:35.972Z,26.61
2019-05-23T13:55:38.527Z,26.44
2019-05-23T13:56:47.382Z,26.98
2019-05-23T13:57:47.890Z,27.01
2019-05-23T13:58:52.007Z,27.18
2019-05-23T13:59:55.429Z,27.06
2019-05-23T14:01:00.209Z,27.06
2019-05-23T14:02:05.569Z,26.67
2019-05-23T14:03:10.283Z,26.65
2019-05-23T14:04:13.905Z,27.20
2019-05-23T14:05:19.668Z,27.20
2019-05-23T14:06:23.422Z,27.51
2019-05-23T14:07:28.502Z,27.77
2019-05-23T14:08:32.217Z,27.32
2019-05-23T14:09:36.679Z,27.17
2019-05-23T14:10:40.290Z,27.17
2019-05-23T14:11:44.304Z,27.36
2019-05-23T14:12:47.870Z,27.36
2019-05-23T14:13:59.728Z,27.74
2019-05-23T14:14:57.227Z,28.00
2019-05-23T14:16:01.592Z,28.34
2019-05-23T14:17:18.773Z,28.34
2019-05-23T14:18:23.983Z,28.60
2019-05-23T14:19:29.660Z,28.56
2019-05-23T14:20:33.186Z,28.49
2019-05-23T14:21:37.399Z,28.06
2019-05-23T14:22:42.597Z,28.00
2019-05-23T14:23:46.680Z,28.40
2019-05-23T14:24:50.538Z,28.63
2019-05-23T14:25:55.500Z,28.91
2019-05-23T14:27:03.490Z,28.73
2019-05-23T14:28:08.522Z,29.08
2019-05-23T14:29:12.692Z,29.48
2019-05-23T14:30:21.634Z,29.52
2019-05-23T14:31:25.678Z,29.26
2019-05-23T14:32:30.769Z,29.18
2019-05-23T14:33:35.892Z,29.30
2019-05-23T14:34:39.991Z,29.24
2019-05-23T14:35:45.175Z,29.21
2019-05-23T14:36:52.948Z,29.15
2019-05-23T14:38:00.557Z,29.29
2019-05-23T14:39:07.415Z,29.21
2019-05-23T14:40:11.678Z,29.13
2019-05-23T14:41:15.983Z,29.03
2019-05-23T14:42:30.317Z,29.03
2019-05-23T14:43:34.145Z,28.89
2019-05-23T14:44:38.620Z,28.79
2019-05-23T14:45:46.244Z,28.85
2019-05-23T14:47:07.566Z,28.85
2019-05-23T14:48:28.702Z,28.65
2019-05-23T14:49:33.876Z,28.10
2019-05-23T14:50:50.931Z,28.64
2019-05-23T14:51:56.314Z,28.54
2019-05-23T14:53:01.849Z,28.68
2019-05-23T14:54:16.212Z,28.94
2019-05-23T14:55:20.552Z,29.04
2019-05-23T14:56:25.700Z,28.97
2019-05-23T14:57:30.276Z,28.79
2019-05-23T14:58:33.854Z,28.65
2019-05-23T14:59:38.546Z,28.02
2019-05-23T15:00:43.105Z,28.26
2019-05-23T15:01:48.905Z,28.12
2019-05-23T15:02:52.514Z,28.03
2019-05-23T15:03:56.700Z,28.06
2019-05-23T15:05:00.441Z,28.32
2019-05-23T15:06:04.783Z,28.67
2019-05-23T15:07:08.416Z,29.05
2019-05-23T15:08:13.536Z,29.09
2019-05-23T15:09:20.932Z,29.30
2019-05-23T15:10:23.079Z,29.45
2019-05-23T15:11:26.838Z,29.29
2019-05-23T15:12:30.933Z,29.05
2019-05-23T15:13:34.375Z,28.87
2019-05-23T15:14:38.479Z,28.85
2019-05-23T15:15:41.969Z,29.16
2019-05-23T15:16:46.080Z,28.72
2019-05-23T15:17:49.848Z,28.42
2019-05-23T15:18:54.572Z,28.63
2019-05-23T15:19:58.399Z,28.64
2019-05-23T15:21:02.980Z,28.57
2019-05-23T15:22:06.849Z,28.50
2019-05-23T15:23:11.040Z,28.46
2019-05-23T15:24:14.494Z,28.35
2019-05-23T15:25:20.240Z,28.32
2019-05-23T15:26:24.284Z,28.22
2019-05-23T15:27:32.820Z,28.36
2019-05-23T15:28:34.533Z,28.30
2019-05-23T15:29:38.804Z,28.16
2019-05-23T15:30:42.495Z,28.39
2019-05-23T15:32:00.901Z,28.43
2019-05-23T15:32:51.864Z,28.10
2019-05-23T15:33:56.036Z,27.71
2019-05-23T15:34:59.946Z,27.16
2019-05-23T15:36:04.569Z,26.92
2019-05-23T15:37:08.310Z,27.10
2019-05-23T15:38:12.449Z,27.18
2019-05-23T15:39:17.415Z,27.04
2019-05-23T15:40:22.432Z,27.00
2019-05-23T15:41:26.159Z,27.06
2019-05-23T15:42:31.012Z,26.83
2019-05-23T15:43:35.045Z,26.37
2019-05-23T15:44:39.259Z,26.13
2019-05-23T15:45:43.390Z,25.93
2019-05-23T15:46:47.628Z,25.57
2019-05-23T15:47:51.854Z,25.43
2019-05-23T15:48:55.964Z,25.33
2019-05-23T15:50:05.537Z,25.19
2019-05-23T15:51:07.078Z,25.03
2019-05-23T15:52:12.249Z,25.03
2019-05-23T15:53:31.931Z,24.70
2019-05-23T15:54:39.830Z,24.53
2019-05-23T15:55:44.966Z,24.53
2019-05-23T15:56:55.879Z,24.44
2019-05-23T15:58:04.471Z,24.40
2019-05-23T15:59:13.796Z,24.13
2019-05-23T16:00:35.063Z,23.84
2019-05-23T16:01:56.062Z,23.66
2019-05-23T16:03:01.129Z,23.40
2019-05-23T16:04:15.956Z,23.12
2019-05-23T16:05:19.646Z,23.13
2019-05-23T16:06:27.589Z,23.02
2019-05-23T16:07:31.960Z,22.80
2019-05-23T16:08:36.184Z,22.69
2019-05-23T16:09:39.783Z,22.62
2019-05-23T16:10:43.905Z,22.54
2019-05-23T16:11:48.045Z,22.49
2019-05-23T16:12:52.141Z,22.43
2019-05-23T16:13:55.718Z,22.35
2019-05-23T16:14:59.829Z,22.29
2019-05-23T16:16:03.791Z,22.24
2019-05-23T16:17:09.919Z,22.08
2019-05-23T16:18:13.708Z,21.87
2019-05-23T16:19:17.943Z,21.85
2019-05-23T16:20:21.970Z,21.87
2019-05-23T16:21:26.788Z,21.82
2019-05-23T16:22:31.188Z,21.75
2019-05-23T16:23:35.934Z,21.70
2019-05-23T16:24:40.129Z,21.63
2019-05-23T16:25:44.971Z,21.58
2019-05-23T16:26:48.976Z,21.47
2019-05-23T16:27:54.235Z,21.36
2019-05-23T16:28:58.094Z,21.23
2019-05-23T16:30:02.351Z,21.20
2019-05-23T16:31:07.136Z,21.08
2019-05-23T16:32:11.676Z,21.04
2019-05-23T16:33:15.734Z,21.14
2019-05-23T16:34:20.262Z,21.12
2019-05-23T16:35:24.828Z,21.00
2019-05-23T16:36:29.518Z,20.98
2019-05-23T16:37:33.203Z,20.57
2019-05-23T16:38:37.496Z,20.82
2019-05-23T16:39:47.242Z,20.83
2019-05-23T16:40:47.822Z,20.70
2019-05-23T16:41:51.699Z,20.73
2019-05-23T16:42:56.366Z,20.70
2019-05-23T16:44:00.076Z,20.67
2019-05-23T16:45:05.994Z,20.60
2019-05-23T16:46:09.790Z,20.58
2019-05-23T16:47:14.418Z,20.61
2019-05-23T16:48:18.302Z,20.62
2019-05-23T16:49:22.591Z,20.56
2019-05-23T16:50:26.303Z,20.49
2019-05-23T16:51:30.887Z,20.41
2019-05-23T16:52:35.424Z,20.44
2019-05-23T16:53:39.781Z,20.35
2019-05-23T16:54:45.493Z,20.38
2019-05-23T16:56:07.072Z,20.35
2019-05-23T16:57:18.451Z,20.27
2019-05-23T16:58:35.433Z,20.17
2019-05-23T16:59:52.570Z,20.04
2019-05-23T17:01:00.520Z,19.95
2019-05-23T17:02:08.674Z,19.86
2019-05-23T17:03:22.834Z,19.84
2019-05-23T17:04:31.007Z,19.85
2019-05-23T17:05:38.740Z,19.77
2019-05-23T17:06:46.629Z,19.71
2019-05-23T17:07:51.856Z,19.66
2019-05-23T17:08:57.281Z,19.56
2019-05-23T17:10:08.480Z,19.52
2019-05-23T17:11:28.781Z,19.55
2019-05-23T17:12:38.081Z,19.55
2019-05-23T17:13:43.220Z,19.51
2019-05-23T17:14:52.084Z,19.41
2019-05-23T17:16:00.168Z,19.45
2019-05-23T17:17:14.048Z,19.54
2019-05-23T17:18:34.370Z,19.53
2019-05-23T17:19:42.586Z,19.35
2019-05-23T17:21:05.883Z,19.42
2019-05-23T17:22:10.957Z,19.37
2019-05-23T17:23:32.986Z,19.36
2019-05-23T17:24:40.121Z,19.28
2019-05-23T17:25:44.953Z,19.21
2019-05-23T17:26:52.751Z,19.23
2019-05-23T17:28:13.996Z,19.27
2019-05-23T17:29:19.244Z,19.27
2019-05-23T17:30:42.340Z,19.31
2019-05-23T17:31:48.298Z,19.31
2019-05-23T17:32:52.473Z,19.23
2019-05-23T17:33:55.986Z,19.19
2019-05-23T17:35:00.283Z,19.15
2019-05-23T17:36:03.800Z,19.02
2019-05-23T17:37:09.395Z,19.00
2019-05-23T17:38:12.988Z,19.00
2019-05-23T17:39:18.424Z,18.97
2019-05-23T17:40:25.321Z,19.01
2019-05-23T17:41:28.194Z,19.00
2019-05-23T17:42:31.716Z,18.91
2019-05-23T17:43:35.958Z,18.87
2019-05-23T17:44:39.626Z,18.84
2019-05-23T17:45:44.388Z,18.80
2019-05-23T17:46:47.904Z,18.72
2019-05-23T17:47:52.184Z,18.74
2019-05-23T17:48:55.699Z,18.71
2019-05-23T17:49:59.891Z,18.69
2019-05-23T17:51:03.470Z,18.75
2019-05-23T17:52:08.337Z,18.74
2019-05-23T17:53:11.947Z,18.71
2019-05-23T17:54:17.506Z,18.65
2019-05-23T17:55:21.104Z,18.59
2019-05-23T17:56:25.339Z,18.61
2019-05-23T17:57:30.235Z,18.61
2019-05-23T17:58:34.425Z,18.62
2019-05-23T17:59:38.096Z,18.61
2019-05-23T18:00:44.075Z,18.56
2019-05-23T18:01:48.537Z,18.59
2019-05-23T18:02:53.209Z,18.57
2019-05-23T18:03:56.717Z,18.46
2019-05-23T18:05:01.208Z,18.42
2019-05-23T18:06:05.187Z,18.44
2019-05-23T18:07:10.238Z,18.42
2019-05-23T18:08:14.914Z,18.38
2019-05-23T18:09:19.845Z,18.33
2019-05-23T18:10:23.452Z,18.29
2019-05-23T18:11:28.512Z,18.29
2019-05-23T18:12:32.087Z,18.26
2019-05-23T18:13:36.175Z,18.18
2019-05-23T18:14:41.415Z,18.18
2019-05-23T18:15:46.404Z,18.18
2019-05-23T18:16:49.989Z,18.18
2019-05-23T18:17:58.667Z,18.24
2019-05-23T18:18:59.436Z,18.24
2019-05-23T18:20:03.957Z,18.25
2019-05-23T18:21:07.562Z,18.19
2019-05-23T18:22:13.414Z,18.16
2019-05-23T18:23:17.663Z,18.11
2019-05-23T18:24:21.964Z,18.11
2019-05-23T18:25:27.864Z,18.14
2019-05-23T18:26:32.593Z,18.09
2019-05-23T18:27:36.793Z,18.06
2019-05-23T18:28:41.186Z,18.05
2019-05-23T18:29:45.099Z,18.00
2019-05-23T18:31:09.898Z,17.96
2019-05-23T18:32:14.431Z,17.96
2019-05-23T18:33:19.537Z,17.98
2019-05-23T18:34:23.846Z,18.00
2019-05-23T18:35:29.566Z,18.01
2019-05-23T18:36:33.287Z,18.00
2019-05-23T18:37:37.791Z,17.94
2019-05-23T18:38:41.703Z,17.90
2019-05-23T18:39:46.181Z,17.91
2019-05-23T18:41:02.755Z,17.85
2019-05-23T18:41:56.258Z,17.81
2019-05-23T18:43:00.240Z,17.77
2019-05-23T18:44:05.718Z,17.77
2019-05-23T18:45:10.389Z,17.74
2019-05-23T18:46:15.876Z,17.74
2019-05-23T18:47:21.173Z,17.78
2019-05-23T18:48:25.676Z,17.79
2019-05-23T18:49:30.080Z,17.75
2019-05-23T18:50:34.457Z,17.64
2019-05-23T18:51:39.528Z,17.64
2019-05-23T18:52:43.893Z,17.64
2019-05-23T18:53:48.156Z,17.64
2019-05-23T18:54:52.832Z,17.64
2019-05-23T18:55:56.689Z,17.65
2019-05-23T18:57:01.075Z,17.66
2019-05-23T18:58:05.274Z,17.64
2019-05-23T18:59:10.507Z,17.60
2019-05-23T19:00:15.102Z,17.60
2019-05-23T19:01:20.387Z,17.58
2019-05-23T19:02:24.186Z,17.50
2019-05-23T19:03:29.214Z,17.50
2019-05-23T19:04:32.892Z,17.51
2019-05-23T19:05:36.976Z,17.51
2019-05-23T19:06:41.042Z,17.54
2019-05-23T19:07:45.328Z,17.54
2019-05-23T19:08:49.978Z,17.50
2019-05-23T19:09:54.076Z,17.49
2019-05-23T19:10:58.917Z,17.45
2019-05-23T19:12:03.173Z,17.47
2019-05-23T19:13:06.856Z,17.43
2019-05-23T19:14:11.007Z,17.45
2019-05-23T19:15:14.651Z,17.45
2019-05-23T19:16:18.661Z,17.41
2019-05-23T19:17:22.655Z,17.40
2019-05-23T19:18:27.184Z,17.37
2019-05-23T19:19:30.896Z,17.29
2019-05-23T19:20:35.162Z,17.23
2019-05-23T19:21:38.912Z,17.25
2019-05-23T19:22:43.051Z,17.27
2019-05-23T19:23:46.950Z,17.25
2019-05-23T19:24:51.029Z,17.24
2019-05-23T19:25:55.368Z,17.22
2019-05-23T19:27:01.200Z,17.22
2019-05-23T19:28:08.957Z,17.25
2019-05-23T19:29:13.401Z,17.28
2019-05-23T19:30:17.247Z,17.29
2019-05-23T19:31:21.577Z,17.27
2019-05-23T19:32:25.313Z,17.28
2019-05-23T19:33:29.978Z,17.23
2019-05-23T19:34:33.673Z,17.21
2019-05-23T19:35:37.898Z,17.16
2019-05-23T19:36:41.468Z,17.14
2019-05-23T19:37:45.648Z,17.09
2019-05-23T19:38:49.494Z,17.09
2019-05-23T19:39:53.772Z,17.08
2019-05-23T19:40:57.867Z,17.10
2019-05-23T19:42:02.126Z,17.14
2019-05-23T19:43:06.648Z,17.11
2019-05-23T19:44:10.753Z,17.06
2019-05-23T19:45:14.290Z,16.99
2019-05-23T19:46:18.941Z,16.95
2019-05-23T19:47:22.518Z,16.92
2019-05-23T19:48:27.371Z,16.89
2019-05-23T19:49:30.871Z,16.92
2019-05-23T19:50:35.943Z,16.90
2019-05-23T19:51:39.920Z,16.88
2019-05-23T19:52:44.119Z,16.88
2019-05-23T19:53:48.431Z,16.91
2019-05-23T19:54:52.751Z,16.88
2019-05-23T19:55:56.737Z,16.90
2019-05-23T19:57:00.878Z,16.90
2019-05-23T19:58:04.863Z,16.94
2019-05-23T19:59:09.319Z,16.94
2019-05-23T20:00:18.716Z,16.89
2019-05-23T20:01:22.872Z,16.87
2019-05-23T20:02:40.495Z,16.87
2019-05-23T20:03:45.167Z,16.85
2019-05-23T20:04:53.071Z,16.82
2019-05-23T20:05:58.993Z,16.83
2019-05-23T20:07:03.453Z,16.79
2019-05-23T20:08:08.058Z,16.79
2019-05-23T20:09:13.419Z,16.81
2019-05-23T20:10:18.185Z,16.77
2019-05-23T20:11:21.919Z,16.73
2019-05-23T20:12:25.960Z,16.67
2019-05-23T20:13:29.814Z,16.64
2019-05-23T20:14:34.301Z,16.63
2019-05-23T20:15:37.959Z,16.64
2019-05-23T20:16:42.440Z,16.58
2019-05-23T20:17:46.095Z,16.61
2019-05-23T20:18:50.278Z,16.59
2019-05-23T20:19:54.351Z,16.42
2019-05-23T20:20:59.251Z,16.32
2019-05-23T20:22:02.878Z,16.35
2019-05-23T20:23:07.400Z,16.38
2019-05-23T20:24:11.046Z,16.36
2019-05-23T20:25:16.050Z,16.28
2019-05-23T20:26:20.163Z,16.27
2019-05-23T20:27:24.442Z,16.26
2019-05-23T20:28:28.351Z,16.18
2019-05-23T20:29:32.707Z,16.12
2019-05-23T20:30:48.607Z,16.03
2019-05-23T20:31:53.099Z,16.04
2019-05-23T20:32:57.102Z,16.14
2019-05-23T20:34:01.582Z,16.11
2019-05-23T20:35:07.051Z,16.06
2019-05-23T20:36:13.142Z,15.98
2019-05-23T20:37:17.057Z,15.96
2019-05-23T20:38:21.957Z,15.99
2019-05-23T20:39:25.797Z,16.01
2019-05-23T20:40:30.591Z,15.99
2019-05-23T20:41:34.408Z,16.01
2019-05-23T20:42:38.566Z,15.98
2019-05-23T20:43:42.259Z,15.91
2019-05-23T20:44:46.810Z,15.89
2019-05-23T20:45:50.319Z,15.70
2019-05-23T20:46:55.444Z,15.80
2019-05-23T20:47:58.984Z,15.70
2019-05-23T20:49:03.485Z,15.64
2019-05-23T20:50:07.287Z,15.66
2019-05-23T20:51:11.530Z,15.58
2019-05-23T20:52:15.407Z,15.58
2019-05-23T20:53:19.623Z,15.52
2019-05-23T20:54:23.570Z,15.58
2019-05-23T20:55:28.354Z,15.63
2019-05-23T20:56:31.799Z,15.60
2019-05-23T20:57:35.881Z,15.49
2019-05-23T20:58:39.384Z,15.52
2019-05-23T20:59:43.501Z,15.51
2019-05-23T21:00:48.768Z,15.53
2019-05-23T21:01:52.555Z,15.52
2019-05-23T21:02:57.114Z,15.50
2019-05-23T21:04:00.591Z,15.52
2019-05-23T21:05:06.380Z,15.29
2019-05-23T21:06:10.251Z,15.27
2019-05-23T21:07:14.376Z,15.28
2019-05-23T21:08:18.062Z,15.27
2019-05-23T21:09:22.081Z,15.26
2019-05-23T21:10:45.716Z,15.16
2019-05-23T21:11:49.863Z,15.16
2019-05-23T21:12:53.415Z,15.17
2019-05-23T21:13:57.678Z,15.19
2019-05-23T21:15:01.203Z,15.19
2019-05-23T21:16:05.699Z,15.23
2019-05-23T21:17:09.191Z,15.29
2019-05-23T21:18:13.786Z,15.28
2019-05-23T21:19:17.281Z,15.28
2019-05-23T21:20:21.391Z,15.29
2019-05-23T21:21:24.923Z,15.25
2019-05-23T21:22:29.612Z,15.28
2019-05-23T21:23:33.052Z,15.27
2019-05-23T21:24:37.212Z,15.23
2019-05-23T21:25:42.441Z,15.14
2019-05-23T21:26:46.486Z,15.04
2019-05-23T21:27:49.917Z,14.94
2019-05-23T21:28:54.079Z,15.01
2019-05-23T21:29:57.599Z,15.01
2019-05-23T21:31:01.764Z,15.02
2019-05-23T21:32:05.339Z,14.90
2019-05-23T21:33:09.459Z,14.93
2019-05-23T21:34:13.232Z,14.95
2019-05-23T21:35:17.411Z,14.98
2019-05-23T21:36:21.275Z,14.95
2019-05-23T21:37:25.295Z,15.01
2019-05-23T21:38:28.905Z,15.02
2019-05-23T21:39:32.977Z,15.00
2019-05-23T21:40:41.278Z,14.97
2019-05-23T21:41:45.368Z,14.94
2019-05-23T21:42:48.820Z,14.90
2019-05-23T21:43:54.679Z,14.88
2019-05-23T21:44:58.269Z,14.90
2019-05-23T21:46:02.383Z,14.91
2019-05-23T21:47:05.887Z,14.91
2019-05-23T21:48:10.283Z,14.86
2019-05-23T21:49:14.180Z,14.77
2019-05-23T21:50:18.223Z,14.75
2019-05-23T21:51:21.725Z,14.75
2019-05-23T21:52:26.040Z,14.76
2019-05-23T21:53:29.610Z,14.73
2019-05-23T21:54:33.767Z,14.66
2019-05-23T21:55:41.645Z,14.65
2019-05-23T21:56:45.724Z,14.68
2019-05-23T21:57:49.169Z,14.70
2019-05-23T21:58:53.297Z,14.70
2019-05-23T21:59:56.693Z,14.64
2019-05-23T22:01:06.484Z,14.56
2019-05-23T22:02:16.207Z,14.49
2019-05-23T22:03:20.464Z,14.45
2019-05-23T22:04:28.301Z,14.47
2019-05-23T22:05:32.404Z,14.46
2019-05-23T22:06:40.982Z,14.52
2019-05-23T22:07:45.935Z,14.56
2019-05-23T22:08:49.707Z,14.53
2019-05-23T22:09:53.785Z,14.47
2019-05-23T22:10:57.318Z,14.50
2019-05-23T22:12:01.944Z,14.51
2019-05-23T22:13:05.404Z,14.55
2019-05-23T22:14:09.691Z,14.50
2019-05-23T22:15:16.548Z,14.46
2019-05-23T22:16:20.665Z,14.43
2019-05-23T22:17:26.002Z,14.40
2019-05-23T22:18:30.038Z,14.36
2019-05-23T22:19:33.538Z,14.35
2019-05-23T22:20:37.565Z,14.37
2019-05-23T22:21:41.095Z,14.28
2019-05-23T22:22:45.260Z,14.15
2019-05-23T22:23:48.771Z,14.03
2019-05-23T22:24:52.868Z,14.03
2019-05-23T22:25:56.397Z,14.03
2019-05-23T22:27:00.500Z,13.95
2019-05-23T22:28:03.997Z,13.97
2019-05-23T22:29:09.096Z,14.03
2019-05-23T22:30:14.282Z,14.10
2019-05-23T22:31:18.501Z,14.09
2019-05-23T22:32:22.506Z,14.09
2019-05-23T22:33:28.030Z,14.13
2019-05-23T22:34:33.177Z,14.20
2019-05-23T22:35:37.193Z,14.25
2019-05-23T22:36:40.733Z,14.26
2019-05-23T22:37:44.893Z,14.20
2019-05-23T22:38:48.400Z,14.14
2019-05-23T22:39:52.419Z,13.92
2019-05-23T22:40:55.985Z,13.89
2019-05-23T22:42:00.108Z,13.84
2019-05-23T22:43:03.566Z,13.79
2019-05-23T22:44:09.054Z,13.75
2019-05-23T22:45:14.503Z,13.71
2019-05-23T22:46:19.488Z,13.67
2019-05-23T22:47:22.993Z,13.59
2019-05-23T22:48:27.063Z,13.49
2019-05-23T22:49:30.578Z,13.54
2019-05-23T22:50:34.812Z,13.47
2019-05-23T22:51:38.343Z,13.41
2019-05-23T22:52:42.451Z,13.42
2019-05-23T22:53:45.912Z,13.40
2019-05-23T22:54:50.020Z,13.37
2019-05-23T22:55:53.421Z,13.27
2019-05-23T22:56:57.477Z,13.17
2019-05-23T22:58:01.188Z,13.08
2019-05-23T22:59:05.618Z,13.07
2019-05-23T23:00:09.206Z,13.02
2019-05-23T23:01:13.777Z,12.96